Time;durP1;ratioP1;P1;durP2;ratioP2;P2;SDS_P1;SDS_P2;PMS_P1;PMS_P2;Temp;Humidity;BMP_temperature;BMP_pressure;BME280_temperature;BME280_humidity;BME280_pressure;Samples;Min_cycle;Max_cycle;Signal;HPM_P1;HPM_P2
2021/07/26 00:01:30;;;;;;;16.83;8.53;;;17.30;99.90;;;;;;5040265;28;20292;-84
2021/07/26 00:03:56;;;;;;;14.70;8.33;;;17.20;99.90;;;;;;5013745;28;20229;-84
2021/07/26 00:06:21;;;;;;;13.43;7.67;;;17.20;99.90;;;;;;5022126;28;20234;-85
2021/07/26 00:08:47;;;;;;;14.50;9.60;;;17.20;99.90;;;;;;5051042;28;20258;-85
2021/07/26 00:11:13;;;;;;;14.87;8.97;;;17.30;99.90;;;;;;5044343;28;20225;-85
2021/07/26 00:13:39;;;;;;;12.60;9.60;;;17.30;99.90;;;;;;5033712;28;20181;-85
2021/07/26 00:16:06;;;;;;;17.17;10.30;;;17.40;99.90;;;;;;5046785;28;20202;-85
2021/07/26 00:18:32;;;;;;;17.30;9.73;;;17.40;99.90;;;;;;5039987;28;20222;-88
2021/07/26 00:20:59;;;;;;;19.50;10.87;;;17.50;99.90;;;;;;5048156;28;20670;-85
2021/07/26 00:23:25;;;;;;;15.90;9.83;;;17.40;99.90;;;;;;5038949;28;20230;-85
2021/07/26 00:25:51;;;;;;;18.47;10.17;;;17.40;99.90;;;;;;5055938;28;20210;-85
2021/07/26 00:28:17;;;;;;;15.67;9.63;;;17.40;99.90;;;;;;5040068;28;20186;-85
2021/07/26 00:30:43;;;;;;;16.07;9.17;;;17.50;99.90;;;;;;5020461;28;20558;-85
2021/07/26 00:34:15;;;;;;;13.10;9.50;;;17.50;99.90;;;;;;5033534;28;20328;-86
2021/07/26 00:36:48;;;;;;;22.40;10.40;;;17.70;99.90;;;;;;5067838;28;20229;-85
2021/07/26 00:39:19;;;;;;;19.53;11.20;;;17.70;99.90;;;;;;5046739;28;20253;-86
2021/07/26 00:41:47;;;;;;;21.17;11.80;;;17.80;99.90;;;;;;5040601;28;20309;-86
2021/07/26 00:44:14;;;;;;;20.63;12.20;;;17.90;99.90;;;;;;5039817;28;20576;-86
2021/07/26 00:46:41;;;;;;;19.20;11.43;;;17.90;99.90;;;;;;5040332;28;20303;-85
2021/07/26 00:49:09;;;;;;;22.47;13.13;;;17.90;99.90;;;;;;5039226;28;20197;-85
2021/07/26 00:51:37;;;;;;;26.80;14.57;;;17.90;99.90;;;;;;5053945;28;20233;-85
2021/07/26 00:54:03;;;;;;;23.10;12.43;;;18.00;99.90;;;;;;5021989;28;20218;-85
2021/07/26 00:56:29;;;;;;;25.30;14.57;;;18.10;99.90;;;;;;5038724;28;20407;-85
2021/07/26 00:58:56;;;;;;;29.37;16.17;;;18.10;99.90;;;;;;5021714;28;20226;-85
2021/07/26 01:01:22;;;;;;;23.60;13.37;;;18.10;99.90;;;;;;5022572;28;20198;-85
2021/07/26 01:03:47;;;;;;;24.80;14.77;;;18.10;99.90;;;;;;5022159;28;20210;-86
2021/07/26 01:06:14;;;;;;;25.90;13.00;;;18.10;99.90;;;;;;5032183;28;20229;-86
2021/07/26 01:08:40;;;;;;;29.30;13.10;;;18.10;99.90;;;;;;5030567;28;20297;-87
2021/07/26 01:11:06;;;;;;;21.43;12.80;;;18.10;99.90;;;;;;5040628;28;20225;-85
2021/07/26 01:13:32;;;;;;;23.27;12.83;;;18.20;99.90;;;;;;5058286;28;20371;-84
2021/07/26 01:15:59;;;;;;;21.07;12.27;;;18.20;99.90;;;;;;5041988;28;20197;-85
2021/07/26 01:18:25;;;;;;;22.17;13.27;;;18.30;99.90;;;;;;5058584;28;20220;-85
2021/07/26 01:21:25;;;;;;;25.53;13.33;;;18.30;99.90;;;;;;5058462;28;20210;-86
2021/07/26 01:23:51;;;;;;;23.90;11.80;;;18.30;99.90;;;;;;5035938;28;20213;-86
2021/07/26 01:26:23;;;;;;;22.00;12.30;;;18.30;99.90;;;;;;5020052;28;21213;-87
2021/07/26 01:28:54;;;;;;;25.17;13.00;;;18.30;99.90;;;;;;5029706;28;20194;-86
2021/07/26 01:31:21;;;;;;;21.43;11.90;;;18.30;99.90;;;;;;5012896;28;20191;-85
2021/07/26 01:33:47;;;;;;;13.77;9.77;;;18.30;99.90;;;;;;5026082;28;20261;-86
2021/07/26 01:36:14;;;;;;;16.10;10.30;;;18.10;99.90;;;;;;5027120;28;20214;-86
2021/07/26 01:38:41;;;;;;;21.03;10.27;;;17.90;99.90;;;;;;5009040;28;20237;-84
2021/07/26 01:41:08;;;;;;;19.57;10.77;;;17.90;99.90;;;;;;5010106;28;20218;-85
2021/07/26 01:43:37;;;;;;;17.50;11.17;;;17.90;99.90;;;;;;5008448;28;20197;-86
2021/07/26 01:46:09;;;;;;;17.87;9.80;;;17.90;99.90;;;;;;5026931;28;20326;-85
2021/07/26 01:48:41;;;;;;;19.97;9.90;;;17.90;99.90;;;;;;5029408;28;20288;-87
2021/07/26 01:51:14;;;;;;;19.17;11.77;;;17.80;99.90;;;;;;5028381;28;20237;-85
2021/07/26 01:53:42;;;;;;;23.70;11.30;;;17.80;99.90;;;;;;5047034;28;20213;-85
2021/07/26 01:56:08;;;;;;;19.77;10.90;;;17.80;99.90;;;;;;5029620;28;20252;-85
2021/07/26 01:58:34;;;;;;;18.47;9.93;;;17.80;99.90;;;;;;5010371;28;20949;-85
2021/07/26 02:01:00;;;;;;;17.77;10.77;;;17.90;99.90;;;;;;5028239;28;20201;-86
2021/07/26 02:03:25;;;;;;;28.03;12.67;;;17.90;99.90;;;;;;5029500;28;20223;-85
2021/07/26 02:05:51;;;;;;;87.87;14.63;;;17.90;99.90;;;;;;5016628;28;20276;-87
2021/07/26 02:08:17;;;;;;;134.97;17.13;;;17.90;99.90;;;;;;5038557;28;20230;-86
2021/07/26 02:10:43;;;;;;;78.60;14.60;;;17.90;99.90;;;;;;5020668;28;20277;-85
2021/07/26 02:13:08;;;;;;;80.83;13.20;;;17.80;99.90;;;;;;5022896;28;20213;-85
2021/07/26 02:15:34;;;;;;;27.87;11.60;;;17.80;99.90;;;;;;5020550;28;20226;-86
2021/07/26 02:18:00;;;;;;;42.30;12.20;;;17.80;99.90;;;;;;5022649;28;20249;-85
2021/07/26 02:20:25;;;;;;;24.50;11.20;;;17.80;99.90;;;;;;5036695;28;20296;-85
2021/07/26 02:22:51;;;;;;;28.37;12.13;;;17.80;99.90;;;;;;5020920;28;20225;-85
2021/07/26 02:25:19;;;;;;;19.63;11.93;;;17.80;99.90;;;;;;5021265;28;20217;-86
2021/07/26 02:27:45;;;;;;;21.23;12.67;;;17.90;99.90;;;;;;5037217;28;20237;-86
2021/07/26 02:30:11;;;;;;;18.17;12.17;;;17.90;99.90;;;;;;5034283;28;20213;-85
2021/07/26 02:32:37;;;;;;;21.43;11.40;;;17.90;99.90;;;;;;5027765;28;20813;-84
2021/07/26 02:35:03;;;;;;;18.73;12.10;;;17.90;99.90;;;;;;5042723;28;20277;-85
2021/07/26 02:37:28;;;;;;;16.67;10.17;;;17.90;99.90;;;;;;5050995;28;20284;-84
2021/07/26 02:39:54;;;;;;;25.80;11.03;;;17.90;99.90;;;;;;5011081;28;20214;-85
2021/07/26 02:42:20;;;;;;;36.50;10.80;;;17.90;99.90;;;;;;5041819;28;20216;-86
2021/07/26 02:44:46;;;;;;;75.17;10.97;;;17.80;99.90;;;;;;5019511;28;20213;-84
2021/07/26 02:47:11;;;;;;;34.17;9.00;;;17.80;99.90;;;;;;5010430;28;20448;-85
2021/07/26 02:49:37;;;;;;;67.77;10.47;;;17.70;99.90;;;;;;5029508;28;20313;-85
2021/07/26 02:52:03;;;;;;;45.03;9.90;;;17.60;99.90;;;;;;5037204;28;21235;-86
2021/07/26 02:54:29;;;;;;;65.37;10.03;;;17.60;99.90;;;;;;5027756;28;20222;-85
2021/07/26 02:56:55;;;;;;;22.67;8.87;;;17.60;99.90;;;;;;5036704;28;20320;-84
2021/07/26 02:59:20;;;;;;;15.00;8.63;;;17.60;99.90;;;;;;5021131;28;20725;-85
2021/07/26 03:01:46;;;;;;;18.17;9.53;;;17.60;99.90;;;;;;5019948;28;20212;-85
2021/07/26 03:04:12;;;;;;;12.10;8.40;;;17.60;99.90;;;;;;5037299;28;20285;-85
2021/07/26 03:06:37;;;;;;;36.80;7.73;;;17.50;99.90;;;;;;5011528;28;20831;-87
2021/07/26 03:09:03;;;;;;;49.47;8.53;;;17.40;99.90;;;;;;5009267;28;20303;-85
2021/07/26 03:11:29;;;;;;;42.30;7.67;;;17.30;99.90;;;;;;5017445;28;20322;-86
2021/07/26 03:13:55;;;;;;;29.93;8.40;;;17.20;99.90;;;;;;5029199;28;20718;-85
2021/07/26 03:16:21;;;;;;;62.10;9.37;;;17.20;99.90;;;;;;5027254;28;20182;-87
2021/07/26 03:18:47;;;;;;;44.37;8.27;;;17.30;99.90;;;;;;5036463;28;20234;-87
2021/07/26 03:21:14;;;;;;;12.23;8.23;;;17.40;99.90;;;;;;5020681;28;20729;-85
2021/07/26 03:23:40;;;;;;;15.67;8.70;;;17.50;99.90;;;;;;5037029;28;20217;-88
2021/07/26 03:26:06;;;;;;;10.20;7.33;;;17.50;99.90;;;;;;5041011;28;20234;-85
2021/07/26 03:28:33;;;;;;;18.00;7.67;;;17.50;99.90;;;;;;5026278;28;20195;-84
2021/07/26 03:30:59;;;;;;;13.87;9.00;;;17.50;99.90;;;;;;5009745;28;20888;-85
2021/07/26 03:33:25;;;;;;;9.57;7.23;;;17.50;99.90;;;;;;5020601;28;20695;-85
2021/07/26 03:35:51;;;;;;;12.50;7.93;;;17.40;99.90;;;;;;5043959;28;20213;-86
2021/07/26 03:38:20;;;;;;;11.40;8.30;;;17.50;99.90;;;;;;5036767;28;20218;-87
2021/07/26 03:40:47;;;;;;;11.80;7.77;;;17.50;99.90;;;;;;5057385;28;20252;-87
2021/07/26 03:43:13;;;;;;;13.10;8.87;;;17.50;99.90;;;;;;5041434;28;20448;-85
2021/07/26 03:45:39;;;;;;;13.77;8.93;;;17.60;99.90;;;;;;5015274;28;20756;-85
2021/07/26 03:48:05;;;;;;;13.90;8.70;;;17.70;99.90;;;;;;5048199;28;20646;-85
2021/07/26 03:50:30;;;;;;;12.23;9.07;;;17.60;99.90;;;;;;5049999;28;20210;-85
2021/07/26 03:52:58;;;;;;;17.07;8.47;;;17.60;99.90;;;;;;5032039;28;20993;-86
2021/07/26 03:55:30;;;;;;;14.03;7.77;;;17.70;99.90;;;;;;5041058;28;20197;-87
2021/07/26 03:57:58;;;;;;;13.57;8.63;;;17.70;99.90;;;;;;5040513;28;20225;-85
2021/07/26 04:00:25;;;;;;;10.80;8.47;;;17.70;99.90;;;;;;5049799;28;20226;-88
2021/07/26 04:05:28;;;;;;;11.87;7.97;;;17.70;99.90;;;;;;5040684;28;20316;-84
2021/07/26 04:07:54;;;;;;;10.87;6.83;;;17.70;99.90;;;;;;5039749;28;20427;-85
2021/07/26 04:10:20;;;;;;;10.27;7.83;;;17.80;99.90;;;;;;5040742;28;20663;-87
2021/07/26 04:12:52;;;;;;;9.23;7.20;;;17.70;99.90;;;;;;5039114;28;20233;-85
2021/07/26 04:15:18;;;;;;;12.40;8.43;;;17.80;99.90;;;;;;5024523;28;20283;-85
2021/07/26 04:17:43;;;;;;;13.87;8.73;;;17.80;99.90;;;;;;5029392;28;20229;-85
2021/07/26 04:20:10;;;;;;;17.37;8.70;;;17.90;99.90;;;;;;5029053;28;20233;-85
2021/07/26 04:22:36;;;;;;;12.37;7.13;;;17.90;99.90;;;;;;5029094;28;20301;-86
2021/07/26 04:25:02;;;;;;;12.83;8.53;;;18.00;99.90;;;;;;5046877;28;21323;-86
2021/07/26 04:27:28;;;;;;;9.93;7.33;;;18.00;99.90;;;;;;5046692;28;20266;-86
2021/07/26 04:29:54;;;;;;;14.57;7.63;;;18.00;99.90;;;;;;5036271;28;20214;-88
2021/07/26 04:32:20;;;;;;;14.00;8.83;;;18.00;99.90;;;;;;5013599;28;20304;-86
2021/07/26 04:34:46;;;;;;;14.17;8.10;;;18.10;99.90;;;;;;5017966;28;21016;-86
2021/07/26 04:37:12;;;;;;;10.83;7.57;;;18.10;99.90;;;;;;5029690;28;20678;-88
2021/07/26 04:39:37;;;;;;;10.33;7.23;;;18.20;99.90;;;;;;5032757;28;20337;-86
2021/07/26 04:42:03;;;;;;;12.77;8.03;;;18.20;99.90;;;;;;5043759;28;20290;-86
2021/07/26 04:44:29;;;;;;;17.13;9.37;;;18.30;99.90;;;;;;5018418;28;20217;-87
2021/07/26 04:46:55;;;;;;;13.77;9.33;;;18.50;99.90;;;;;;5021704;28;20222;-86
2021/07/26 04:49:23;;;;;;;13.60;8.47;;;18.60;99.90;;;;;;5039895;28;20198;-86
2021/07/26 04:51:49;;;;;;;19.60;8.93;;;18.80;99.90;;;;;;5055479;28;20229;-86
2021/07/26 04:54:15;;;;;;;14.47;10.70;;;18.90;99.90;;;;;;5044006;28;20222;-86
2021/07/26 04:56:40;;;;;;;15.10;9.07;;;19.10;99.90;;;;;;5038610;28;20248;-85
2021/07/26 04:59:06;;;;;;;12.23;8.77;;;19.10;99.90;;;;;;5038235;28;20988;-86
2021/07/26 05:01:32;;;;;;;14.40;9.27;;;19.10;99.90;;;;;;5038493;28;20285;-84
2021/07/26 05:03:57;;;;;;;17.10;10.80;;;19.20;99.90;;;;;;5038624;28;20194;-89
2021/07/26 05:06:23;;;;;;;18.20;11.20;;;19.40;99.90;;;;;;5034435;28;20260;-86
2021/07/26 05:08:49;;;;;;;17.57;11.60;;;19.50;99.90;;;;;;5038878;28;20675;-88
2021/07/26 05:11:21;;;;;;;17.67;10.57;;;19.50;99.90;;;;;;5008450;28;20720;-86
2021/07/26 05:13:47;;;;;;;16.13;11.37;;;19.50;99.90;;;;;;5038765;28;20576;-87
2021/07/26 05:16:13;;;;;;;14.60;9.97;;;19.60;99.90;;;;;;5038048;28;20206;-88
2021/07/26 05:18:38;;;;;;;17.87;10.60;;;19.60;99.90;;;;;;5012668;28;20218;-86
2021/07/26 05:21:04;;;;;;;17.30;11.67;;;19.60;99.90;;;;;;5020444;28;20685;-86
2021/07/26 05:23:30;;;;;;;20.37;9.97;;;19.60;99.90;;;;;;5031705;28;20223;-87
2021/07/26 05:25:55;;;;;;;15.80;8.80;;;19.50;99.90;;;;;;5014636;28;21049;-85
2021/07/26 05:28:21;;;;;;;19.03;10.20;;;19.50;99.90;;;;;;5014619;28;20198;-87
2021/07/26 05:30:47;;;;;;;12.03;8.73;;;19.50;99.90;;;;;;5029877;28;21104;-86
2021/07/26 05:33:13;;;;;;;12.43;9.30;;;19.60;99.90;;;;;;5042901;28;20225;-86
2021/07/26 05:35:41;;;;;;;15.23;9.70;;;19.60;99.90;;;;;;5027638;28;20579;-86
2021/07/26 05:38:07;;;;;;;15.37;10.13;;;20.40;99.90;;;;;;5029267;28;20535;-86
2021/07/26 05:40:33;;;;;;;16.37;11.07;;;21.00;99.90;;;;;;5038289;28;20269;-87
2021/07/26 05:42:59;;;;;;;14.73;10.27;;;22.50;99.90;;;;;;5058963;28;20192;-87
2021/07/26 05:45:25;;;;;;;16.87;9.90;;;24.80;99.90;;;;;;5040683;28;20238;-88
2021/07/26 05:47:51;;;;;;;10.87;7.90;;;26.30;99.90;;;;;;5029320;28;20221;-88
2021/07/26 05:50:18;;;;;;;10.13;7.97;;;27.80;99.90;;;;;;5020739;28;20222;-86
2021/07/26 05:52:46;;;;;;;9.20;7.07;;;29.10;99.90;;;;;;5039242;28;20234;-87
2021/07/26 05:55:12;;;;;;;9.20;7.18;;;29.40;99.90;;;;;;5029089;28;20615;-84
2021/07/26 05:57:43;;;;;;;8.23;5.82;;;28.00;99.90;;;;;;5043144;28;20229;-86
2021/07/26 06:00:12;;;;;;;9.23;6.95;;;26.50;99.90;;;;;;5032332;28;20214;-86
2021/07/26 06:02:38;;;;;;;8.63;6.95;;;25.00;99.90;;;;;;5040007;28;20230;-85
2021/07/26 06:05:04;;;;;;;9.00;6.15;;;25.20;99.90;;;;;;5012299;28;20231;-85
2021/07/26 06:07:30;;;;;;;11.68;7.95;;;25.20;99.90;;;;;;5044689;28;20220;-84
2021/07/26 06:09:56;;;;;;;9.35;6.60;;;25.70;99.90;;;;;;5047185;28;20689;-86
2021/07/26 06:12:23;;;;;;;10.05;6.97;;;25.60;99.90;;;;;;5028141;28;20233;-86
2021/07/26 06:14:49;;;;;;;7.88;6.25;;;25.00;99.90;;;;;;5024512;28;20198;-85
2021/07/26 06:17:17;;;;;;;8.55;6.72;;;24.50;99.90;;;;;;5040313;28;20662;-85
2021/07/26 06:19:42;;;;;;;9.27;6.35;;;24.70;99.90;;;;;;5046431;28;20272;-85
2021/07/26 06:22:08;;;;;;;8.82;6.63;;;24.50;99.90;;;;;;5027638;28;20197;-86
2021/07/26 06:24:34;;;;;;;10.52;6.93;;;24.10;99.90;;;;;;5036050;28;20294;-86
2021/07/26 06:27:00;;;;;;;9.60;7.00;;;24.20;99.90;;;;;;5028458;28;20246;-85
2021/07/26 06:29:26;;;;;;;10.95;7.05;;;25.40;99.90;;;;;;5023016;28;20306;-86
2021/07/26 06:31:57;;;;;;;9.55;7.15;;;26.30;99.90;;;;;;5010171;28;20241;-85
2021/07/26 06:34:22;;;;;;;8.00;6.05;;;26.10;99.90;;;;;;5024796;28;20194;-86
2021/07/26 06:36:48;;;;;;;11.60;7.40;;;24.80;99.90;;;;;;5025162;28;20213;-86
2021/07/26 06:39:14;;;;;;;9.90;6.95;;;24.80;99.90;;;;;;5022516;28;20223;-85
2021/07/26 06:41:40;;;;;;;6.78;5.50;;;24.60;99.90;;;;;;5021622;28;20206;-85
2021/07/26 06:44:06;;;;;;;9.65;7.57;;;24.10;99.90;;;;;;5011931;28;20218;-85
2021/07/26 06:46:32;;;;;;;8.10;6.70;;;23.80;99.90;;;;;;5036537;28;21033;-87
2021/07/26 06:48:58;;;;;;;8.90;6.65;;;23.30;99.90;;;;;;5040255;28;20766;-87
2021/07/26 06:51:24;;;;;;;8.25;7.38;;;23.00;99.90;;;;;;5038061;28;20233;-88
2021/07/26 06:53:50;;;;;;;11.77;6.80;;;22.90;99.90;;;;;;5043921;28;20339;-91
2021/07/26 06:56:16;;;;;;;8.90;7.07;;;23.00;99.90;;;;;;5020993;28;20256;-90
2021/07/26 06:58:42;;;;;;;10.25;7.25;;;23.30;99.90;;;;;;5052207;28;20417;-89
2021/07/26 07:01:11;;;;;;;12.02;7.03;;;23.50;99.90;;;;;;5036119;28;20269;-88
2021/07/26 07:03:40;;;;;;;9.63;6.20;;;24.20;99.90;;;;;;5050670;28;20537;-91
2021/07/26 07:06:14;;;;;;;9.48;6.70;;;25.50;99.90;;;;;;5055986;28;20308;-89
2021/07/26 07:08:40;;;;;;;8.88;6.97;;;26.90;99.90;;;;;;5034694;28;20221;-88
2021/07/26 07:11:14;;;;;;;7.55;6.30;;;26.60;99.90;;;;;;5042649;28;20233;-88
2021/07/26 07:13:46;;;;;;;7.47;5.93;;;28.30;99.90;;;;;;5041805;28;20189;-88
2021/07/26 07:16:17;;;;;;;9.48;6.82;;;29.00;99.90;;;;;;5040895;28;20225;-88
2021/07/26 07:18:46;;;;;;;7.43;6.15;;;28.60;99.90;;;;;;5039487;28;20214;-88
2021/07/26 07:21:30;;;;;;;7.38;5.90;;;28.80;99.90;;;;;;5025342;28;20214;-88
2021/07/26 07:23:57;;;;;;;8.57;6.05;;;30.50;99.90;;;;;;5024509;28;20570;-88
2021/07/26 07:26:24;;;;;;;9.20;6.60;;;31.90;99.90;;;;;;5056453;28;20292;-88
2021/07/26 07:28:50;;;;;;;8.45;6.38;;;32.30;99.90;;;;;;5035516;28;20182;-89
2021/07/26 07:31:23;;;;;;;11.90;7.07;;;31.80;99.90;;;;;;5041326;28;20277;-89
2021/07/26 07:33:53;;;;;;;8.95;5.95;;;31.50;99.90;;;;;;5025399;28;20220;-91
2021/07/26 07:36:20;;;;;;;8.82;6.03;;;30.40;99.90;;;;;;5042149;28;20687;-89
2021/07/26 07:38:46;;;;;;;7.85;6.15;;;28.70;99.90;;;;;;5022152;28;20552;-87
2021/07/26 07:41:12;;;;;;;8.85;6.75;;;28.40;99.90;;;;;;5016937;28;20256;-90
2021/07/26 07:43:37;;;;;;;8.15;6.50;;;29.00;99.90;;;;;;5037965;28;21018;-88
2021/07/26 07:46:04;;;;;;;8.75;6.20;;;30.70;99.90;;;;;;5016943;28;20226;-88
2021/07/26 07:48:31;;;;;;;7.90;6.20;;;30.20;99.90;;;;;;5041502;28;20218;-90
2021/07/26 07:50:57;;;;;;;8.27;6.53;;;28.90;99.90;;;;;;5029289;28;20237;-88
2021/07/26 07:53:23;;;;;;;8.30;6.80;;;29.50;99.90;;;;;;5039177;28;20233;-87
2021/07/26 07:55:52;;;;;;;7.03;5.90;;;30.10;99.90;;;;;;5040399;28;20186;-92
2021/07/26 07:58:19;;;;;;;8.60;6.20;;;31.20;99.90;;;;;;5060472;28;20223;-87
2021/07/26 08:00:48;;;;;;;7.57;6.53;;;30.30;99.90;;;;;;5062426;28;20232;-89
2021/07/26 08:03:14;;;;;;;8.55;6.40;;;29.20;99.90;;;;;;5054358;28;20308;-89
2021/07/26 08:05:39;;;;;;;8.65;5.88;;;28.90;99.90;;;;;;5060374;28;20592;-88
2021/07/26 08:08:07;;;;;;;8.88;6.38;;;29.20;99.90;;;;;;5037608;28;20238;-89
2021/07/26 08:10:33;;;;;;;9.43;6.22;;;30.60;99.90;;;;;;5030841;28;20281;-91
2021/07/26 08:12:59;;;;;;;6.82;5.25;;;30.10;99.90;;;;;;5032165;28;20204;-89
2021/07/26 08:15:25;;;;;;;8.27;5.55;;;30.20;99.90;;;;;;5030343;28;20274;-93
2021/07/26 08:17:51;;;;;;;8.07;5.75;;;29.80;99.90;;;;;;5030920;28;20710;-89
2021/07/26 08:20:17;;;;;;;7.78;6.07;;;28.40;99.90;;;;;;5034515;28;20213;-90
2021/07/26 08:22:44;;;;;;;7.30;6.30;;;27.60;99.90;;;;;;5046902;28;20185;-91
2021/07/26 08:25:13;;;;;;;6.95;4.93;;;26.90;99.90;;;;;;5014733;28;20218;-92
2021/07/26 08:27:58;;;;;;;6.38;4.88;;;27.00;99.90;;;;;;5050423;28;20294;-91
2021/07/26 08:30:29;;;;;;;8.05;5.60;;;27.30;99.90;;;;;;5049968;28;20213;-89
2021/07/26 08:32:55;;;;;;;11.48;6.28;;;26.80;99.90;;;;;;5044666;28;20411;-89
2021/07/26 08:35:21;;;;;;;7.18;5.57;;;26.20;99.90;;;;;;5049543;28;20257;-89
2021/07/26 08:37:48;;;;;;;7.68;5.47;;;26.70;99.90;;;;;;5040688;28;20186;-90
2021/07/26 08:40:14;;;;;;;6.07;5.38;;;27.20;99.90;;;;;;5039949;28;20202;-90
2021/07/26 08:42:41;;;;;;;6.60;5.60;;;26.70;99.90;;;;;;5023299;28;20975;-95
2021/07/26 08:45:10;;;;;;;6.50;5.13;;;27.30;99.90;;;;;;5035285;28;20229;-89
2021/07/26 08:47:41;;;;;;;6.45;5.05;;;27.40;99.90;;;;;;5052266;28;20222;-93
2021/07/26 08:50:08;;;;;;;5.72;4.43;;;26.00;99.90;;;;;;5037915;28;20218;-90
2021/07/26 08:52:42;;;;;;;6.93;4.60;;;25.50;99.90;;;;;;5038364;28;20234;-90
2021/07/26 08:55:12;;;;;;;5.32;3.20;;;25.90;99.90;;;;;;5058117;28;21253;-86
2021/07/26 08:57:44;;;;;;;3.10;2.67;;;26.50;99.90;;;;;;5031512;28;20212;-87
2021/07/26 09:00:11;;;;;;;5.68;2.75;;;26.70;99.90;;;;;;5030784;28;20861;-89
2021/07/26 09:02:37;;;;;;;6.30;3.65;;;27.00;99.90;;;;;;5028699;28;20495;-89
2021/07/26 09:05:05;;;;;;;5.60;3.10;;;26.50;99.90;;;;;;5018473;28;20228;-89
2021/07/26 09:07:32;;;;;;;4.40;3.15;;;27.10;99.90;;;;;;5031217;28;20194;-90
2021/07/26 09:10:00;;;;;;;3.60;2.75;;;27.10;99.90;;;;;;5049704;28;20704;-88
2021/07/26 09:12:33;;;;;;;6.57;2.70;;;26.50;99.90;;;;;;5056917;28;20573;-88
2021/07/26 09:15:00;;;;;;;2.60;2.10;;;26.70;99.90;;;;;;5046235;28;20233;-86
2021/07/26 09:17:42;;;;;;;3.60;2.60;;;27.10;99.90;;;;;;5050240;28;20569;-87
2021/07/26 09:20:09;;;;;;;3.97;3.33;;;27.00;99.90;;;;;;5031631;28;20603;-89
2021/07/26 09:22:36;;;;;;;5.22;3.05;;;28.60;99.90;;;;;;5006310;28;20781;-89
2021/07/26 09:25:08;;;;;;;4.07;2.85;;;29.30;99.90;;;;;;5015497;28;20198;-89
2021/07/26 09:27:34;;;;;;;3.45;2.60;;;29.00;99.90;;;;;;5056364;28;20232;-89
2021/07/26 09:30:14;;;;;;;4.10;2.90;;;30.20;99.90;;;;;;5022963;28;20226;-88
2021/07/26 09:32:40;;;;;;;4.43;2.88;;;29.90;99.90;;;;;;5046967;28;20209;-87
2021/07/26 09:35:09;;;;;;;3.17;2.80;;;27.70;99.90;;;;;;5021606;28;20226;-90
2021/07/26 09:37:37;;;;;;;3.90;2.63;;;27.30;99.90;;;;;;5015266;28;20228;-89
2021/07/26 09:40:22;;;;;;;2.42;2.20;;;27.00;99.90;;;;;;5028395;28;20547;-88
2021/07/26 09:42:49;;;;;;;3.90;2.53;;;27.60;99.90;;;;;;5014266;28;20214;-88
2021/07/26 09:45:23;;;;;;;3.10;2.63;;;29.10;99.90;;;;;;5045130;28;21234;-89
2021/07/26 09:48:05;;;;;;;6.18;2.78;;;28.50;99.90;;;;;;5040695;28;20312;-90
2021/07/26 09:50:38;;;;;;;6.93;3.25;;;28.10;99.90;;;;;;5042120;28;20692;-87
2021/07/26 09:53:11;;;;;;;4.13;2.72;;;27.60;99.90;;;;;;5031564;28;20252;-90
2021/07/26 09:55:38;;;;;;;5.03;3.65;;;27.20;99.90;;;;;;5026906;28;20230;-91
2021/07/26 09:58:05;;;;;;;5.13;3.42;;;26.70;99.90;;;;;;5031220;28;20239;-89
2021/07/26 10:00:32;;;;;;;5.22;3.25;;;26.80;99.90;;;;;;5017881;28;20312;-88
2021/07/26 10:02:59;;;;;;;4.90;4.15;;;27.10;99.90;;;;;;5037762;28;20237;-89
2021/07/26 10:05:28;;;;;;;7.25;4.13;;;27.40;99.90;;;;;;5034792;28;20265;-87
2021/07/26 10:07:54;;;;;;;5.25;3.72;;;27.30;99.90;;;;;;5047191;28;20221;-88
2021/07/26 10:10:21;;;;;;;3.78;3.08;;;27.30;99.90;;;;;;5055602;28;20824;-87
2021/07/26 10:12:48;;;;;;;5.68;3.92;;;27.30;99.90;;;;;;5014443;28;20219;-87
2021/07/26 10:15:15;;;;;;;7.88;4.22;;;28.00;99.90;;;;;;5028813;28;20225;-88
2021/07/26 10:17:41;;;;;;;4.85;3.78;;;28.20;99.90;;;;;;5014249;28;20229;-89
2021/07/26 10:20:09;;;;;;;5.72;3.67;;;27.90;99.90;;;;;;5035750;28;20725;-88
2021/07/26 10:22:35;;;;;;;4.72;3.53;;;27.30;99.90;;;;;;5020542;28;20186;-86
2021/07/26 10:25:11;;;;;;;5.65;3.50;;;26.90;99.90;;;;;;5044258;28;20202;-89
2021/07/26 10:27:39;;;;;;;4.43;3.22;;;27.20;99.90;;;;;;5053411;28;20275;-87
2021/07/26 10:30:05;;;;;;;4.78;3.58;;;27.30;99.90;;;;;;5029174;28;20234;-87
2021/07/26 10:32:37;;;;;;;4.50;3.28;;;27.40;99.90;;;;;;5037593;28;20328;-91
2021/07/26 10:35:12;;;;;;;3.13;2.83;;;27.40;99.90;;;;;;5029228;28;20222;-92
2021/07/26 10:37:41;;;;;;;3.25;2.72;;;26.60;99.90;;;;;;5044608;28;20189;-88
2021/07/26 10:40:32;;;;;;;5.90;3.58;;;26.40;99.90;;;;;;5036328;28;20186;-88
2021/07/26 10:43:03;;;;;;;4.72;3.03;;;26.30;99.90;;;;;;5047859;28;20565;-87
2021/07/26 10:45:35;;;;;;;5.10;2.85;;;26.50;99.90;;;;;;5046498;28;20228;-86
2021/07/26 10:48:19;;;;;;;4.82;3.38;;;26.20;99.90;;;;;;5032363;28;20231;-87
2021/07/26 10:50:46;;;;;;;5.50;3.00;;;26.00;99.90;;;;;;5041366;28;20209;-88
2021/07/26 10:53:32;;;;;;;6.15;3.47;;;26.30;99.90;;;;;;5024329;28;20606;-89
2021/07/26 10:56:08;;;;;;;3.95;3.53;;;26.80;99.90;;;;;;5043058;28;20277;-87
2021/07/26 10:58:41;;;;;;;3.97;3.42;;;27.40;99.90;;;;;;5029399;28;20221;-89
2021/07/26 11:01:26;;;;;;;3.65;3.13;;;27.80;99.90;;;;;;5058572;28;20201;-88
2021/07/26 11:03:56;;;;;;;5.28;4.47;;;26.70;99.90;;;;;;5031469;28;20230;-90
2021/07/26 11:06:37;;;;;;;7.93;3.80;;;27.00;99.90;;;;;;5017392;28;20241;-94
2021/07/26 11:09:21;;;;;;;5.00;3.53;;;27.40;99.90;;;;;;5038505;28;20381;-90
2021/07/26 11:11:52;;;;;;;5.18;3.50;;;26.90;99.90;;;;;;5038021;28;20874;-89
2021/07/26 11:14:18;;;;;;;5.57;3.35;;;26.60;99.90;;;;;;5048211;28;20217;-88
2021/07/26 11:16:55;;;;;;;4.60;3.35;;;26.30;99.90;;;;;;5038075;28;20545;-89
2021/07/26 11:19:30;;;;;;;3.88;3.05;;;25.40;99.90;;;;;;5035443;28;20511;-90
2021/07/26 11:21:56;;;;;;;6.13;3.90;;;24.80;99.90;;;;;;5038673;28;20208;-88
2021/07/26 11:24:40;;;;;;;4.15;3.70;;;24.50;99.90;;;;;;5058141;28;20388;-89
2021/07/26 11:27:22;;;;;;;6.40;4.78;;;24.30;99.90;;;;;;5037143;28;20266;-87
2021/07/26 11:29:52;;;;;;;8.55;4.95;;;24.10;99.90;;;;;;5026939;28;20263;-87
2021/07/26 11:32:20;;;;;;;7.10;4.40;;;24.50;99.90;;;;;;5035933;28;20225;-86
2021/07/26 11:34:46;;;;;;;4.78;3.58;;;24.70;99.90;;;;;;5024988;28;20195;-87
2021/07/26 11:37:14;;;;;;;5.30;3.92;;;24.90;99.90;;;;;;5027240;28;20399;-87
2021/07/26 11:39:51;;;;;;;7.95;4.60;;;25.20;99.90;;;;;;5044895;28;20213;-87
2021/07/26 11:42:37;;;;;;;7.00;4.00;;;26.00;99.90;;;;;;5031396;28;20272;-86
2021/07/26 11:45:04;;;;;;;4.32;3.70;;;27.30;99.90;;;;;;5025797;28;20222;-87
2021/07/26 11:47:44;;;;;;;5.00;3.70;;;28.10;99.90;;;;;;5024981;28;20270;-87
2021/07/26 11:50:12;;;;;;;4.15;3.75;;;28.80;99.90;;;;;;5028343;28;20309;-87
2021/07/26 11:52:38;;;;;;;5.25;3.63;;;29.50;99.90;;;;;;5013192;28;20238;-88
2021/07/26 11:55:14;;;;;;;5.95;3.92;;;28.50;99.90;;;;;;5033471;28;20200;-87
2021/07/26 11:57:56;;;;;;;5.43;3.83;;;27.50;99.90;;;;;;5030866;28;20222;-90
2021/07/26 12:00:32;;;;;;;6.60;3.95;;;26.50;99.90;;;;;;5032029;28;20455;-92
2021/07/26 12:02:59;;;;;;;6.10;4.28;;;25.40;99.90;;;;;;5041084;28;20218;-88
2021/07/26 12:05:29;;;;;;;5.53;4.32;;;25.60;99.90;;;;;;5043839;28;20238;-89
2021/07/26 12:07:55;;;;;;;5.25;4.68;;;26.20;99.90;;;;;;5032127;28;20221;-89
2021/07/26 12:10:32;;;;;;;8.73;5.38;;;26.40;99.90;;;;;;5050832;28;20181;-88
2021/07/26 12:13:12;;;;;;;7.82;5.75;;;26.10;99.90;;;;;;5037759;28;20229;-87
2021/07/26 12:15:42;;;;;;;8.25;4.30;;;25.80;99.90;;;;;;5038883;28;20217;-87
2021/07/26 12:18:08;;;;;;;12.45;4.45;;;25.60;99.90;;;;;;5057400;28;20225;-88
2021/07/26 12:20:39;;;;;;;8.60;5.10;;;25.00;99.90;;;;;;5054137;28;20225;-91
2021/07/26 12:23:12;;;;;;;8.98;5.28;;;25.10;99.90;;;;;;5073177;28;20240;-95
2021/07/26 12:25:48;;;;;;;11.02;5.10;;;25.40;99.90;;;;;;5062710;28;20209;-89
2021/07/26 12:28:19;;;;;;;9.32;4.50;;;25.40;99.90;;;;;;5048666;28;20188;-91
2021/07/26 12:30:51;;;;;;;11.02;4.53;;;24.70;99.90;;;;;;5065670;28;20221;-95
2021/07/26 12:33:31;;;;;;;6.28;3.90;;;24.20;99.90;;;;;;5047401;28;20213;-89
2021/07/26 12:36:14;;;;;;;9.40;5.13;;;23.70;99.90;;;;;;5050313;28;20217;-89
2021/07/26 12:39:04;;;;;;;11.35;4.78;;;23.70;99.90;;;;;;5044374;28;20698;-89
2021/07/26 12:41:32;;;;;;;11.52;3.78;;;23.80;99.90;;;;;;5019919;28;20225;-91
2021/07/26 12:44:13;;;;;;;6.38;2.75;;;23.80;99.90;;;;;;5042279;28;20228;-93
2021/07/26 12:46:49;;;;;;;4.50;2.25;;;23.80;99.90;;;;;;5044276;28;20543;-90
2021/07/26 12:49:23;;;;;;;5.28;2.45;;;23.40;99.90;;;;;;5044579;28;20231;-90
2021/07/26 12:51:52;;;;;;;4.97;3.15;;;23.10;99.90;;;;;;5051958;28;20241;-88